Mare Frisium — PCBM — position and weather

sailwx.info

Track history (hours):
 
Tides and Currents Weather Stations Pressure Air Temp Water Temp Dewpoint Dewpoint Depression Visibility Wind Speed Wind Dir Waves Ship Positions

Mare Frisium (Netherlands)

Ship's website: http://www.tallship-company.com/mare-frisium-2/

Last reported at 2017-Jun-27 10:00 UTC. Time now 2017-Jun-27 10:23 UTC.
Position N 53°56' E 009°13'.

Length 50 m; draft 2.7 m.

Type: Sailing vessel. MMSI: 244596000.

Date/timePositionNaut miles runAvg speedWind from/ knotsBaromVisibWave heightAir tempDewpointWater temp
2017-Jun-27 10:00N 53°56' E 009°13'4 7.9
2017-Jun-27 09:30N 53°59' E 009°17'5 7.6
2017-Jun-27 08:53N 54°04' E 009°19'25 1.5
2017-Jun-26 16:06N 54°22' E 009°48'1 6.3
2017-Jun-26 15:57N 54°22' E 009°50'3 6.2
2017-Jun-26 15:26N 54°21' E 009°55'3 6.4
2017-Jun-26 14:58N 54°21' E 009°60'5 5.4
2017-Jun-26 14:00N 54°22' E 010°09'0 0.0
2017-Jun-26 13:30N 54°22' E 010°09'1 1.5
2017-Jun-26 13:00N 54°22' E 010°10'0 0.3
2017-Jun-26 12:30N 54°22' E 010°10'2 3.2
2017-Jun-26 12:00N 54°20' E 010°10'1 2.4
2017-Jun-26 11:26N 54°19' E 010°09'0 0.0
2017-Jun-26 10:47N 54°19' E 010°09'0 0.0
2017-Jun-26 10:29N 54°19' E 010°09'0 0.0
2017-Jun-26 09:59N 54°19' E 010°09'0 0.0
2017-Jun-26 09:29N 54°19' E 010°09'0 0.0
2017-Jun-26 08:59N 54°19' E 010°09'0 0.0
2017-Jun-26 08:23N 54°19' E 010°09'0 0.0
2017-Jun-26 07:53N 54°19' E 010°09'0 0.0
2017-Jun-26 07:23N 54°19' E 010°09'0 0.0
2017-Jun-26 06:59N 54°19' E 010°09'0 0.0
2017-Jun-26 06:29N 54°19' E 010°09'0 0.0
2017-Jun-26 05:56N 54°19' E 010°09'0 0.0
2017-Jun-26 01:11N 54°19' E 010°09'0 0.0
2017-Jun-26 00:56N 54°19' E 010°09'0 0.0
2017-Jun-26 00:29N 54°19' E 010°09'0 0.0
2017-Jun-25 23:59N 54°19' E 010°09'0 0.0
2017-Jun-25 23:29N 54°19' E 010°09'0 0.0
2017-Jun-25 22:47N 54°19' E 010°09'0 0.0
2017-Jun-25 22:29N 54°19' E 010°09'0 0.0
2017-Jun-25 22:00N 54°19' E 010°09'1 2.2
2017-Jun-25 21:30N 54°20' E 010°10'0 1.0
2017-Jun-25 21:00N 54°21' E 010°10'2 4.1
2017-Jun-25 20:30N 54°23' E 010°11'2 4.9
2017-Jun-25 20:00N 54°25' E 010°12'1 1.6
2017-Jun-25 19:30N 54°24' E 010°12'2 4.1
2017-Jun-25 19:00N 54°22' E 010°11'2 3.9
2017-Jun-25 18:30N 54°20' E 010°10'1 2.6
2017-Jun-25 18:00N 54°19' E 010°09'0 0.0
2017-Jun-25 17:30N 54°19' E 010°09'0 0.0
2017-Jun-25 16:54N 54°19' E 010°09'0 0.0
2017-Jun-25 16:30N 54°19' E 010°09'1 1.5
2017-Jun-25 16:00N 54°20' E 010°10'1 2.3
2017-Jun-25 15:30N 54°21' E 010°10'2 3.5
2017-Jun-25 15:00N 54°22' E 010°11'0 0.5
2017-Jun-25 14:30N 54°22' E 010°11'3 3.3
2017-Jun-25 13:30N 54°19' E 010°09'0 0.0
2017-Jun-25 13:00N 54°19' E 010°09'0 0.0
2017-Jun-25 12:30N 54°19' E 010°09'0 0.0
2017-Jun-25 12:00N 54°19' E 010°09'0 0.0
2017-Jun-25 11:30N 54°19' E 010°09'1 1.7
2017-Jun-25 11:00N 54°20' E 010°09'2 3.4
2017-Jun-25 10:30N 54°22' E 010°10'3 0.3
2017-Jun-25 01:07N 54°19' E 010°09'0 0.0
2017-Jun-25 00:58N 54°19' E 010°09'0 0.0
2017-Jun-25 00:28N 54°19' E 010°09'0 0.0
2017-Jun-24 23:49N 54°19' E 010°09'0 0.0
2017-Jun-24 23:31N 54°19' E 010°09'0 0.0
2017-Jun-24 23:01N 54°19' E 010°09'0 0.0
2017-Jun-24 22:25N 54°19' E 010°09'0 0.0
2017-Jun-24 21:58N 54°19' E 010°09'0 0.0
2017-Jun-24 21:31N 54°19' E 010°09'0 0.0
2017-Jun-24 21:01N 54°19' E 010°09'0 0.0
2017-Jun-24 20:24N 54°19' E 010°09'0 0.0
2017-Jun-24 20:00N 54°19' E 010°09'0 0.0
2017-Jun-24 19:30N 54°19' E 010°09'0 0.0
2017-Jun-24 19:00N 54°19' E 010°09'1 1.9
2017-Jun-24 18:30N 54°20' E 010°09'2 4.4
2017-Jun-24 18:00N 54°22' E 010°11'2 4.3
2017-Jun-24 17:30N 54°24' E 010°12'2 4.0
2017-Jun-24 17:00N 54°22' E 010°11'2 4.9
2017-Jun-24 16:30N 54°20' E 010°10'1 1.4
2017-Jun-24 15:55N 54°19' E 010°09'0 0.0
2017-Jun-24 15:25N 54°19' E 010°09'0 0.0
2017-Jun-24 14:55N 54°19' E 010°09'0 0.0
2017-Jun-24 14:00N 54°19' E 010°09'1 1.9
2017-Jun-24 13:30N 54°20' E 010°09'2 4.0
2017-Jun-24 13:00N 54°22' E 010°10'  
2017-Jun-21 12:01N 54°25' E 010°13'0 4.0
2017-Jun-21 11:56N 54°25' E 010°13'2 5.7
2017-Jun-21 11:30N 54°22' E 010°11'3 6.7
2017-Jun-21 11:00N 54°19' E 010°09'0 0.0
2017-Jun-21 10:25N 54°19' E 010°09'0 0.0
2017-Jun-21 09:58N 54°19' E 010°09'0 0.0
2017-Jun-21 09:28N 54°19' E 010°09'0 0.1
2017-Jun-21 08:52N 54°19' E 010°09'0 0.1
2017-Jun-21 08:28N 54°19' E 010°09'0 0.0
2017-Jun-21 07:58N 54°19' E 010°09'0 0.0
2017-Jun-21 07:22N 54°19' E 010°09'0 0.0
2017-Jun-21 06:58N 54°19' E 010°09'0 0.0
2017-Jun-21 06:28N 54°19' E 010°09'0 0.0
2017-Jun-21 05:49N 54°19' E 010°09'0 0.0
2017-Jun-21 05:28N 54°19' E 010°09'0 0.0
2017-Jun-21 04:58N 54°19' E 010°09'0 0.0
2017-Jun-21 04:28N 54°19' E 010°09'0 0.0
2017-Jun-21 03:58N 54°19' E 010°09'0 0.0
2017-Jun-21 03:28N 54°19' E 010°09'0 0.0
2017-Jun-21 02:58N 54°19' E 010°09'0 0.0
2017-Jun-21 02:28N 54°19' E 010°09'0 0.0
2017-Jun-21 01:58N 54°19' E 010°09'0 0.0
2017-Jun-21 01:28N 54°19' E 010°09'0 0.0
2017-Jun-21 00:58N 54°19' E 010°09'0 0.0
2017-Jun-21 00:22N 54°19' E 010°09'0 0.0
2017-Jun-20 23:58N 54°19' E 010°09'0 0.0
2017-Jun-20 23:22N 54°19' E 010°09'0 0.0
2017-Jun-20 22:58N 54°19' E 010°09'0 0.0
2017-Jun-20 22:30N 54°19' E 010°09'1 2.9
2017-Jun-20 22:00N 54°21' E 010°10'5 5.4
2017-Jun-20 21:04N 54°25' E 010°12'0 0.3
2017-Jun-20 21:00N 54°25' E 010°12'1 1.3
2017-Jun-20 20:30N 54°25' E 010°12'3 3.7
2017-Jun-20 19:47N 54°27' E 010°14'1 1.6
2017-Jun-20 19:15N 54°26' E 010°14'2 5.9
2017-Jun-20 18:59N 54°25' E 010°13'3 5.1
2017-Jun-20 18:30N 54°23' E 010°11'2 4.7
2017-Jun-20 18:00N 54°20' E 010°10'1 2.7
2017-Jun-20 17:30N 54°19' E 010°09'0 0.0
2017-Jun-20 17:00N 54°19' E 010°09'0 0.0
2017-Jun-20 16:30N 54°19' E 010°09'18 0.5
2017-Jun-19 06:29N 54°16' E 009°38'14 4.8
2017-Jun-19 03:41N 54°08' E 009°20'2 6.7
2017-Jun-19 03:27N 54°06' E 009°20'3 6.9
2017-Jun-19 03:00N 54°03' E 009°19'4 7.0
2017-Jun-19 02:30N 53°60' E 009°18'4 7.3
2017-Jun-19 02:01N 53°57' E 009°14'4 7.4
2017-Jun-19 01:31N 53°54' E 009°10'1 1.7
2017-Jun-19 00:59N 53°54' E 009°09'2 4.9
2017-Jun-19 00:31N 53°53' E 009°13'5 9.8
2017-Jun-19 00:00N 53°51' E 009°20'510.1
2017-Jun-18 23:30N 53°46' E 009°24'510.0
2017-Jun-18 23:00N 53°42' E 009°30'5 9.5
2017-Jun-18 22:30N 53°38' E 009°32'4 8.7
2017-Jun-18 22:00N 53°35' E 009°38'4 7.8
2017-Jun-18 21:30N 53°34' E 009°44'3 6.6
2017-Jun-18 21:00N 53°33' E 009°49'3 6.5
2017-Jun-18 20:30N 53°33' E 009°55'2 4.6
2017-Jun-18 19:58N 53°33' E 009°59'0 0.0
2017-Jun-18 19:28N 53°33' E 009°59'0 0.0
2017-Jun-18 18:58N 53°33' E 009°59'0 0.0
2017-Jun-18 18:28N 53°33' E 009°59'0 0.0
2017-Jun-18 17:58N 53°33' E 009°59'0 0.0
2017-Jun-18 17:28N 53°33' E 009°59'0 0.0
2017-Jun-18 16:58N 53°33' E 009°59'0 0.0
2017-Jun-18 16:30N 53°33' E 009°59'0 0.0
2017-Jun-18 16:00N 53°33' E 009°59'0 0.0
2017-Jun-18 15:30N 53°33' E 009°59'0 0.0
2017-Jun-18 15:00N 53°33' E 009°59'0 0.0
2017-Jun-18 14:00N 53°33' E 009°59'0 0.0
2017-Jun-18 13:30N 53°33' E 009°59'0 0.2
2017-Jun-18 13:00N 53°33' E 009°59'0 0.7
2017-Jun-18 12:30N 53°33' E 009°58'2 3.9
2017-Jun-18 12:00N 53°32' E 009°55'2 3.4
2017-Jun-18 11:30N 53°33' E 009°52'2 3.2
2017-Jun-18 11:01N 53°33' E 009°50'1 2.7
2017-Jun-18 10:31N 53°33' E 009°47'3 5.4
2017-Jun-18 10:00N 53°33' E 009°52'2 4.4
2017-Jun-18 09:30N 53°33' E 009°56'2 3.7
2017-Jun-18 08:58N 53°33' E 009°59'0 0.0
2017-Jun-18 08:28N 53°33' E 009°59'0 0.0
2017-Jun-18 07:58N 53°33' E 009°59'0 0.0
2017-Jun-18 07:28N 53°33' E 009°59'0 0.0
2017-Jun-18 06:56N 53°33' E 009°59'0 0.2
2017-Jun-18 06:29N 53°33' E 009°59'0 0.0
2017-Jun-18 06:00N 53°33' E 009°59'0 0.0
2017-Jun-18 05:29N 53°33' E 009°59'0 0.0
2017-Jun-18 05:00N 53°33' E 009°59'0 0.0
2017-Jun-18 04:26N 53°33' E 009°59'0 0.0
2017-Jun-18 04:00N 53°33' E 009°59'0 0.0
2017-Jun-18 03:30N 53°33' E 009°59'0 0.0
2017-Jun-18 02:59N 53°33' E 009°59'0 0.0
2017-Jun-18 02:30N 53°33' E 009°59'0 0.0
2017-Jun-18 02:00N 53°33' E 009°59'0 0.0
2017-Jun-18 01:30N 53°33' E 009°59'0 0.0
2017-Jun-18 01:00N 53°33' E 009°59'0 0.0
2017-Jun-18 00:30N 53°33' E 009°59'0 0.0
2017-Jun-17 23:59N 53°33' E 009°59'0 0.0
2017-Jun-17 23:29N 53°33' E 009°59'0 0.0
2017-Jun-17 22:59N 53°33' E 009°59'0 0.0
2017-Jun-17 22:30N 53°33' E 009°59'0 0.0
2017-Jun-17 21:59N 53°33' E 009°59'0 0.0
2017-Jun-17 21:30N 53°33' E 009°59'0 0.0
2017-Jun-17 20:59N 53°33' E 009°59'0 0.0
2017-Jun-17 20:30N 53°33' E 009°59'0 0.0
2017-Jun-17 20:00N 53°33' E 009°59'0 0.0
2017-Jun-17 19:29N 53°33' E 009°59'0 0.0
2017-Jun-17 19:00N 53°33' E 009°59'0 0.0
2017-Jun-17 18:29N 53°33' E 009°59'0 0.0
2017-Jun-17 17:59N 53°33' E 009°59'0 0.0
2017-Jun-17 17:30N 53°33' E 009°59'0 0.0
2017-Jun-17 16:59N 53°33' E 009°59'0 0.0
2017-Jun-17 16:30N 53°33' E 009°59'0 0.0
2017-Jun-17 16:00N 53°33' E 009°59'0 0.0
2017-Jun-17 15:29N 53°33' E 009°59'0 0.0
2017-Jun-17 15:00N 53°33' E 009°59'0 0.0
2017-Jun-17 14:30N 53°33' E 009°59'0 0.0
2017-Jun-17 13:30N 53°33' E 009°59'0 0.2
2017-Jun-17 13:00N 53°33' E 009°59'1 2.0
2017-Jun-17 12:30N 53°33' E 009°57'2 3.9
2017-Jun-17 12:00N 53°32' E 009°54'2 3.9
2017-Jun-17 11:30N 53°33' E 009°51'2 3.6
2017-Jun-17 11:00N 53°33' E 009°48'1 2.5
2017-Jun-17 10:30N 53°33' E 009°50'2 4.1
2017-Jun-17 10:00N 53°33' E 009°53'  
Track history (hours):
 
Tides and Currents Weather Stations Pressure Air Temp Water Temp Dewpoint Dewpoint Depression Visibility Wind Speed Wind Dir Waves Ship Positions

Mare Frisium (Netherlands)

Ship's website: http://www.tallship-company.com/mare-frisium-2/

Last reported at 2017-Jun-27 10:00 UTC. Time now 2017-Jun-27 10:23 UTC.
Position N 53°56' E 009°13'.

Length 50 m; draft 2.7 m.

Type: Sailing vessel. MMSI: 244596000.

Date/timePositionNaut miles runAvg speedWind from/ knotsBaromVisibWave heightAir tempDewpointWater temp
2017-Jun-27 10:00N 53°56' E 009°13'4 7.9
2017-Jun-27 09:30N 53°59' E 009°17'5 7.6
2017-Jun-27 08:53N 54°04' E 009°19'25 1.5
2017-Jun-26 16:06N 54°22' E 009°48'1 6.3
2017-Jun-26 15:57N 54°22' E 009°50'3 6.2
2017-Jun-26 15:26N 54°21' E 009°55'3 6.4
2017-Jun-26 14:58N 54°21' E 009°60'5 5.4
2017-Jun-26 14:00N 54°22' E 010°09'0 0.0
2017-Jun-26 13:30N 54°22' E 010°09'1 1.5
2017-Jun-26 13:00N 54°22' E 010°10'0 0.3
2017-Jun-26 12:30N 54°22' E 010°10'2 3.2
2017-Jun-26 12:00N 54°20' E 010°10'1 2.4
2017-Jun-26 11:26N 54°19' E 010°09'0 0.0
2017-Jun-26 10:47N 54°19' E 010°09'0 0.0
2017-Jun-26 10:29N 54°19' E 010°09'0 0.0
2017-Jun-26 09:59N 54°19' E 010°09'0 0.0
2017-Jun-26 09:29N 54°19' E 010°09'0 0.0
2017-Jun-26 08:59N 54°19' E 010°09'0 0.0
2017-Jun-26 08:23N 54°19' E 010°09'0 0.0
2017-Jun-26 07:53N 54°19' E 010°09'0 0.0
2017-Jun-26 07:23N 54°19' E 010°09'0 0.0
2017-Jun-26 06:59N 54°19' E 010°09'0 0.0
2017-Jun-26 06:29N 54°19' E 010°09'0 0.0
2017-Jun-26 05:56N 54°19' E 010°09'0 0.0
2017-Jun-26 01:11N 54°19' E 010°09'0 0.0
2017-Jun-26 00:56N 54°19' E 010°09'0 0.0
2017-Jun-26 00:29N 54°19' E 010°09'0 0.0
2017-Jun-25 23:59N 54°19' E 010°09'0 0.0
2017-Jun-25 23:29N 54°19' E 010°09'0 0.0
2017-Jun-25 22:47N 54°19' E 010°09'0 0.0
2017-Jun-25 22:29N 54°19' E 010°09'0 0.0
2017-Jun-25 22:00N 54°19' E 010°09'1 2.2
2017-Jun-25 21:30N 54°20' E 010°10'0 1.0
2017-Jun-25 21:00N 54°21' E 010°10'2 4.1
2017-Jun-25 20:30N 54°23' E 010°11'2 4.9
2017-Jun-25 20:00N 54°25' E 010°12'1 1.6
2017-Jun-25 19:30N 54°24' E 010°12'2 4.1
2017-Jun-25 19:00N 54°22' E 010°11'2 3.9
2017-Jun-25 18:30N 54°20' E 010°10'1 2.6
2017-Jun-25 18:00N 54°19' E 010°09'0 0.0
2017-Jun-25 17:30N 54°19' E 010°09'0 0.0
2017-Jun-25 16:54N 54°19' E 010°09'0 0.0
2017-Jun-25 16:30N 54°19' E 010°09'1 1.5
2017-Jun-25 16:00N 54°20' E 010°10'1 2.3
2017-Jun-25 15:30N 54°21' E 010°10'2 3.5
2017-Jun-25 15:00N 54°22' E 010°11'0 0.5
2017-Jun-25 14:30N 54°22' E 010°11'3 3.3
2017-Jun-25 13:30N 54°19' E 010°09'0 0.0
2017-Jun-25 13:00N 54°19' E 010°09'0 0.0
2017-Jun-25 12:30N 54°19' E 010°09'0 0.0
2017-Jun-25 12:00N 54°19' E 010°09'0 0.0
2017-Jun-25 11:30N 54°19' E 010°09'1 1.7
2017-Jun-25 11:00N 54°20' E 010°09'2 3.4
2017-Jun-25 10:30N 54°22' E 010°10'3 0.3
2017-Jun-25 01:07N 54°19' E 010°09'0 0.0
2017-Jun-25 00:58N 54°19' E 010°09'0 0.0
2017-Jun-25 00:28N 54°19' E 010°09'0 0.0
2017-Jun-24 23:49N 54°19' E 010°09'0 0.0
2017-Jun-24 23:31N 54°19' E 010°09'0 0.0
2017-Jun-24 23:01N 54°19' E 010°09'0 0.0
2017-Jun-24 22:25N 54°19' E 010°09'0 0.0
2017-Jun-24 21:58N 54°19' E 010°09'0 0.0
2017-Jun-24 21:31N 54°19' E 010°09'0 0.0
2017-Jun-24 21:01N 54°19' E 010°09'0 0.0
2017-Jun-24 20:24N 54°19' E 010°09'0 0.0
2017-Jun-24 20:00N 54°19' E 010°09'0 0.0
2017-Jun-24 19:30N 54°19' E 010°09'0 0.0
2017-Jun-24 19:00N 54°19' E 010°09'1 1.9
2017-Jun-24 18:30N 54°20' E 010°09'2 4.4
2017-Jun-24 18:00N 54°22' E 010°11'2 4.3
2017-Jun-24 17:30N 54°24' E 010°12'2 4.0
2017-Jun-24 17:00N 54°22' E 010°11'2 4.9
2017-Jun-24 16:30N 54°20' E 010°10'1 1.4
2017-Jun-24 15:55N 54°19' E 010°09'0 0.0
2017-Jun-24 15:25N 54°19' E 010°09'0 0.0
2017-Jun-24 14:55N 54°19' E 010°09'0 0.0
2017-Jun-24 14:00N 54°19' E 010°09'1 1.9
2017-Jun-24 13:30N 54°20' E 010°09'2 4.0
2017-Jun-24 13:00N 54°22' E 010°10'  
2017-Jun-21 12:01N 54°25' E 010°13'0 4.0
2017-Jun-21 11:56N 54°25' E 010°13'2 5.7
2017-Jun-21 11:30N 54°22' E 010°11'3 6.7
2017-Jun-21 11:00N 54°19' E 010°09'0 0.0
2017-Jun-21 10:25N 54°19' E 010°09'0 0.0
2017-Jun-21 09:58N 54°19' E 010°09'0 0.0
2017-Jun-21 09:28N 54°19' E 010°09'0 0.1
2017-Jun-21 08:52N 54°19' E 010°09'0 0.1
2017-Jun-21 08:28N 54°19' E 010°09'0 0.0
2017-Jun-21 07:58N 54°19' E 010°09'0 0.0
2017-Jun-21 07:22N 54°19' E 010°09'0 0.0
2017-Jun-21 06:58N 54°19' E 010°09'0 0.0
2017-Jun-21 06:28N 54°19' E 010°09'0 0.0
2017-Jun-21 05:49N 54°19' E 010°09'0 0.0
2017-Jun-21 05:28N 54°19' E 010°09'0 0.0
2017-Jun-21 04:58N 54°19' E 010°09'0 0.0
2017-Jun-21 04:28N 54°19' E 010°09'0 0.0
2017-Jun-21 03:58N 54°19' E 010°09'0 0.0
2017-Jun-21 03:28N 54°19' E 010°09'0 0.0
2017-Jun-21 02:58N 54°19' E 010°09'0 0.0
2017-Jun-21 02:28N 54°19' E 010°09'0 0.0
2017-Jun-21 01:58N 54°19' E 010°09'0 0.0
2017-Jun-21 01:28N 54°19' E 010°09'0 0.0
2017-Jun-21 00:58N 54°19' E 010°09'0 0.0
2017-Jun-21 00:22N 54°19' E 010°09'0 0.0
2017-Jun-20 23:58N 54°19' E 010°09'0 0.0
2017-Jun-20 23:22N 54°19' E 010°09'0 0.0
2017-Jun-20 22:58N 54°19' E 010°09'0 0.0
2017-Jun-20 22:30N 54°19' E 010°09'1 2.9
2017-Jun-20 22:00N 54°21' E 010°10'5 5.4
2017-Jun-20 21:04N 54°25' E 010°12'0 0.3
2017-Jun-20 21:00N 54°25' E 010°12'1 1.3
2017-Jun-20 20:30N 54°25' E 010°12'3 3.7
2017-Jun-20 19:47N 54°27' E 010°14'1 1.6
2017-Jun-20 19:15N 54°26' E 010°14'2 5.9
2017-Jun-20 18:59N 54°25' E 010°13'3 5.1
2017-Jun-20 18:30N 54°23' E 010°11'2 4.7
2017-Jun-20 18:00N 54°20' E 010°10'1 2.7
2017-Jun-20 17:30N 54°19' E 010°09'0 0.0
2017-Jun-20 17:00N 54°19' E 010°09'0 0.0
2017-Jun-20 16:30N 54°19' E 010°09'18 0.5
2017-Jun-19 06:29N 54°16' E 009°38'14 4.8
2017-Jun-19 03:41N 54°08' E 009°20'2 6.7
2017-Jun-19 03:27N 54°06' E 009°20'3 6.9
2017-Jun-19 03:00N 54°03' E 009°19'4 7.0
2017-Jun-19 02:30N 53°60' E 009°18'4 7.3
2017-Jun-19 02:01N 53°57' E 009°14'4 7.4
2017-Jun-19 01:31N 53°54' E 009°10'1 1.7
2017-Jun-19 00:59N 53°54' E 009°09'2 4.9
2017-Jun-19 00:31N 53°53' E 009°13'5 9.8
2017-Jun-19 00:00N 53°51' E 009°20'510.1
2017-Jun-18 23:30N 53°46' E 009°24'510.0
2017-Jun-18 23:00N 53°42' E 009°30'5 9.5
2017-Jun-18 22:30N 53°38' E 009°32'4 8.7
2017-Jun-18 22:00N 53°35' E 009°38'4 7.8
2017-Jun-18 21:30N 53°34' E 009°44'3 6.6
2017-Jun-18 21:00N 53°33' E 009°49'3 6.5
2017-Jun-18 20:30N 53°33' E 009°55'2 4.6
2017-Jun-18 19:58N 53°33' E 009°59'0 0.0
2017-Jun-18 19:28N 53°33' E 009°59'0 0.0
2017-Jun-18 18:58N 53°33' E 009°59'0 0.0
2017-Jun-18 18:28N 53°33' E 009°59'0 0.0
2017-Jun-18 17:58N 53°33' E 009°59'0 0.0
2017-Jun-18 17:28N 53°33' E 009°59'0 0.0
2017-Jun-18 16:58N 53°33' E 009°59'0 0.0
2017-Jun-18 16:30N 53°33' E 009°59'0 0.0
2017-Jun-18 16:00N 53°33' E 009°59'0 0.0
2017-Jun-18 15:30N 53°33' E 009°59'0 0.0
2017-Jun-18 15:00N 53°33' E 009°59'0 0.0
2017-Jun-18 14:00N 53°33' E 009°59'0 0.0
2017-Jun-18 13:30N 53°33' E 009°59'0 0.2
2017-Jun-18 13:00N 53°33' E 009°59'0 0.7
2017-Jun-18 12:30N 53°33' E 009°58'2 3.9
2017-Jun-18 12:00N 53°32' E 009°55'2 3.4
2017-Jun-18 11:30N 53°33' E 009°52'2 3.2
2017-Jun-18 11:01N 53°33' E 009°50'1 2.7
2017-Jun-18 10:31N 53°33' E 009°47'3 5.4
2017-Jun-18 10:00N 53°33' E 009°52'2 4.4
2017-Jun-18 09:30N 53°33' E 009°56'2 3.7
2017-Jun-18 08:58N 53°33' E 009°59'0 0.0
2017-Jun-18 08:28N 53°33' E 009°59'0 0.0
2017-Jun-18 07:58N 53°33' E 009°59'0 0.0
2017-Jun-18 07:28N 53°33' E 009°59'0 0.0
2017-Jun-18 06:56N 53°33' E 009°59'0 0.2
2017-Jun-18 06:29N 53°33' E 009°59'0 0.0
2017-Jun-18 06:00N 53°33' E 009°59'0 0.0
2017-Jun-18 05:29N 53°33' E 009°59'0 0.0
2017-Jun-18 05:00N 53°33' E 009°59'0 0.0
2017-Jun-18 04:26N 53°33' E 009°59'0 0.0
2017-Jun-18 04:00N 53°33' E 009°59'0 0.0
2017-Jun-18 03:30N 53°33' E 009°59'0 0.0
2017-Jun-18 02:59N 53°33' E 009°59'0 0.0
2017-Jun-18 02:30N 53°33' E 009°59'0 0.0
2017-Jun-18 02:00N 53°33' E 009°59'0 0.0
2017-Jun-18 01:30N 53°33' E 009°59'0 0.0
2017-Jun-18 01:00N 53°33' E 009°59'0 0.0
2017-Jun-18 00:30N 53°33' E 009°59'0 0.0
2017-Jun-17 23:59N 53°33' E 009°59'0 0.0
2017-Jun-17 23:29N 53°33' E 009°59'0 0.0
2017-Jun-17 22:59N 53°33' E 009°59'0 0.0
2017-Jun-17 22:30N 53°33' E 009°59'0 0.0
2017-Jun-17 21:59N 53°33' E 009°59'0 0.0
2017-Jun-17 21:30N 53°33' E 009°59'0 0.0
2017-Jun-17 20:59N 53°33' E 009°59'0 0.0
2017-Jun-17 20:30N 53°33' E 009°59'0 0.0
2017-Jun-17 20:00N 53°33' E 009°59'0 0.0
2017-Jun-17 19:29N 53°33' E 009°59'0 0.0
2017-Jun-17 19:00N 53°33' E 009°59'0 0.0
2017-Jun-17 18:29N 53°33' E 009°59'0 0.0
2017-Jun-17 17:59N 53°33' E 009°59'0 0.0
2017-Jun-17 17:30N 53°33' E 009°59'0 0.0
2017-Jun-17 16:59N 53°33' E 009°59'0 0.0
2017-Jun-17 16:30N 53°33' E 009°59'0 0.0
2017-Jun-17 16:00N 53°33' E 009°59'0 0.0
2017-Jun-17 15:29N 53°33' E 009°59'0 0.0
2017-Jun-17 15:00N 53°33' E 009°59'0 0.0
2017-Jun-17 14:30N 53°33' E 009°59'0 0.0
2017-Jun-17 13:30N 53°33' E 009°59'0 0.2
2017-Jun-17 13:00N 53°33' E 009°59'1 2.0
2017-Jun-17 12:30N 53°33' E 009°57'2 3.9
2017-Jun-17 12:00N 53°32' E 009°54'2 3.9
2017-Jun-17 11:30N 53°33' E 009°51'2 3.6
2017-Jun-17 11:00N 53°33' E 009°48'1 2.5
2017-Jun-17 10:30N 53°33' E 009°50'2 4.1
2017-Jun-17 10:00N 53°33' E 009°53'  

Dump ship's entire track history